• Join FlightAware (Why Join?)
  • Login
  • US Flag 
08:38PM EDT


 

Airport Tracker/Info


-or-


 

Live Flight TrackerFlight Track Log ✈ N143DE ✈ 01-May-2013 ✈ KRYY - KPAH

Flight Track Log - Related Links

Times and Time Zones

All times are in EDT time to prevent confusion due to time zone crossing. See the N143DE flight status page for this flight to view local times or setup timezone preferences in your user account.

Time Position Orientation Groundspeed Altitude Reporting Facility
EDT Latitude Longitude Course Direction KTS MPH feet Rate Location/Type
05:46AM 34.0333 -84.5667 360° North 167 192 2,300  Level Atlanta TRACON
05:47AM 34.0833 -84.5667 360° North 194 223 4,200 1,740 Climbing Atlanta TRACON
05:48AM 34.1353 -84.5733 354° North 189 217 5,900 1,800 Climbing Atlanta Center
05:49AM 34.1856 -84.5786 355° North 202 232 7,800 1,980 Climbing Atlanta Center
05:50AM 34.2292 -84.6142 326° Northwest 186 214 9,900 1,860 Climbing Atlanta Center
05:51AM 34.2708 -84.6444 329° Northwest 176 203 11,600 1,500 Climbing Atlanta Center
05:52AM 34.3122 -84.6775 327° Northwest 176 203 13,000 1,320 Climbing Atlanta Center
05:53AM 34.3600 -84.7106 330° Northwest 182 209 14,300 1,200 Climbing Atlanta Center
05:54AM 34.4081 -84.7436 330° Northwest 189 217 15,500 1,080 Climbing Atlanta Center
05:55AM 34.4558 -84.7819 327° Northwest 197 227 16,500 960 Climbing Atlanta Center
05:56AM 34.5056 -84.8178 329° Northwest 197 227 17,500 900 Climbing Atlanta Center
05:57AM 34.5575 -84.8508 332° Northwest 202 232 18,300 840 Climbing Atlanta Center
05:58AM 34.6075 -84.8892 328° Northwest 209 241 19,200 720 Climbing Atlanta Center
05:59AM 34.6592 -84.9278 328° Northwest 214 246 19,800 600 Climbing Atlanta Center
06:00AM 34.7111 -84.9686 327° Northwest 214 246 20,400 660 Climbing Atlanta Center
06:01AM 34.7650 -85.0072 330° Northwest 219 252 21,200 660 Climbing Atlanta Center
06:02AM 34.8192 -85.0483 328° Northwest 219 252 21,800 600 Climbing Atlanta Center
06:03AM 34.8731 -85.0869 330° Northwest 224 258 22,400 600 Climbing Atlanta Center
06:04AM 34.9269 -85.1281 328° Northwest 224 258 23,000 600 Climbing Atlanta Center
06:05AM 34.9786 -85.1719 325° Northwest 229 264 23,600 540 Climbing Atlanta Center
06:06AM 35.0136 -85.2358 304° West 224 258 24,100 240 Climbing Atlanta Center
06:07AM 35.0506 -85.2997 305° West 224 258 24,100  Level Atlanta Center
06:08AM 35.0914 -85.3664 307° West 237 273 24,100  Level Atlanta Center
06:09AM 35.1328 -85.4339 307° West 247 284 24,100  Level Memphis Center
06:10AM 35.1750 -85.5000 308° West 252 290 24,100  Level Memphis Center
06:11AM 35.2175 -85.5714 306° West 252 290 24,100  Level Memphis Center
06:12AM 35.2578 -85.6428 305° West 257 296 24,100  Level Memphis Center
06:13AM 35.3019 -85.7114 308° West 257 296 24,100  Level Memphis Center
06:14AM 35.3422 -85.7831 305° West 257 296 24,100  Level Memphis Center
06:15AM 35.3844 -85.8544 306° West 257 296 24,100  Level Memphis Center
06:16AM 35.4267 -85.9261 306° West 257 296 24,100  Level Memphis Center
06:17AM 35.4708 -85.9953 308° West 257 296 24,100  Level Memphis Center
06:18AM 35.5108 -86.0669 304° West 257 296 24,100  Level Memphis Center
06:19AM 35.5550 -86.1389 307° West 257 296 24,100  Level Memphis Center
06:20AM 35.6017 -86.2181 306° West 257 296 24,100  Level Memphis Center
06:21AM 35.6436 -86.2928 305° West 257 296 24,100  Level Memphis Center
06:22AM 35.6878 -86.3644 307° West 262 302 24,100  Level Memphis Center
06:23AM 35.7253 -86.4292 306° West 262 302 24,100  Level Memphis Center
06:24AM 35.7669 -86.5014 305° West 257 296 24,100  Level Memphis Center
06:25AM 35.8111 -86.5736 307° West 257 296 24,100  Level Memphis Center
06:26AM 35.8528 -86.6461 305° West 257 296 24,100  Level Memphis Center
06:27AM 35.8944 -86.7183 305° West 257 296 24,100  Level Memphis Center
06:28AM 35.9408 -86.8008 305° West 257 296 24,100  Level Memphis Center
06:29AM 35.9844 -86.8708 308° West 257 296 24,100  Level Memphis Center
06:30AM 36.0261 -86.9436 305° West 257 296 24,100  Level Memphis Center
06:31AM 36.0697 -87.0161 307° West 257 296 24,100  Level Memphis Center
06:32AM 36.1133 -87.0914 306° West 257 296 24,100  Level Memphis Center
06:33AM 36.1550 -87.1644 305° West 257 296 24,100  Level Memphis Center
06:34AM 36.1922 -87.2322 304° West 262 302 24,100 -300 Level Memphis Center
06:35AM 36.2358 -87.3078 306° West 262 302 23,500 -1,020 Descending Memphis Center
06:36AM 36.2836 -87.3911 305° West 276 318 22,100 -1,440 Descending Memphis Center
06:37AM 36.3333 -87.4717 307° West 290 334 20,700 -1,440 Descending Memphis Center
06:38AM 36.3769 -87.5553 303° West 290 334 19,300 -1,500 Descending Memphis Center
06:39AM 36.4289 -87.6411 307° West 290 334 17,700 -1,620 Descending Memphis Center
06:40AM 36.4744 -87.7247 304° West 290 334 16,100 -1,620 Descending Memphis Center
06:41AM 36.5222 -87.8058 306° West 290 334 14,500 -1,560 Descending Memphis Center
06:42AM 36.5675 -87.8869 305° West 290 334 13,000 -1,260 Descending Memphis Center
06:43AM 36.6128 -87.9658 306° West 279 321 12,000 -960 Descending Memphis Center
06:44AM 36.6558 -88.0394 306° West 279 321 11,100 -540 Descending Memphis Center
06:45AM 36.6947 -88.1108 304° West 266 306 11,000 -600 Descending Memphis Center
06:46AM 36.7378 -88.1872 305° West 266 306 10,000 -1,320 Descending Memphis Center
06:47AM 36.7831 -88.2664 306° West 272 313 8,400 -1,440 Descending Memphis Center
06:48AM 36.8278 -88.3325 310° West 272 313 7,200 -1,140 Descending Memphis Center
06:49AM 36.8703 -88.3911 312° West 252 290 6,200 -1,140 Descending Memphis Center
06:50AM 36.9108 -88.4497 311° West 231 266 5,000 -1,200 Descending Memphis Center
06:51AM 36.9514 -88.5061 312° West 226 260 3,800 -960 Descending Memphis Center
06:52AM 36.9939 -88.5594 315° West 226 260 3,100 -660 Descending Memphis Center
06:53AM 37.0483 -88.5894 336° Northwest 212 244 2,500 -300 Descending Memphis Center
06:54AM 37.0947 -88.6222 331° Northwest 199 229 2,500  Level Memphis Center
06:55AM 37.0975 -88.6769 274° West 150 173 2,500  Level Memphis Center